LDRI Airport Information

Runway Information
Runway 14 Length 8164 ft width 148 ft
Elevation 264 ft Threshold 0 ft Heading 144
Runway 32 Length 8164 ft Width 148 ft
Elevation 246 ft Threshold 0 ft Heading 324
Airport Frequencies
Type APP Name APP Frequency 119 MHZ
Type TWR Name TWR Frequency 119 MHZ
Airport Navaids
Type NDB Name Breza Frequency 400 KHZ
Type NDB Name Kozala Frequency 438 KHZ
Type VOR-DME Name Rijeka Frequency 117800 KHZ
Airport Weather Information & NOTAM
ADDS - METARS form results

(0759 UTC 22 January 2019)
Data provider http://aviationweather.gov/metar/data/
 
METAR text: LDRI 220730Z 05012G24KT 330V090 9999 FEW050 04/M06 Q1009
Conditions at: LDRI (RIJEKA/OMISALJ , HR) observed 0730 UTC 22 January 2019
Temperature: 4.0°C (39°F)
Dewpoint: -6.0°C (21°F) [RH = 48%]
Pressure (altimeter): 29.79 inches Hg (1009.0 mb)
Winds: from the NE (50 degrees) at 14 MPH (12 knots; 6.2 m/s)
gusting to 28 MPH (24 knots; 12.3 m/s)
Visibility: 6 or more miles (10+ km)
Ceiling: at least 12,000 feet AGL
Clouds: few clouds at 5000 feet AGL
Weather: no significant weather observed at this time

METAR text: LDRI 220700Z 06009KT 030V100 9999 FEW050 04/M05 Q1010
Conditions at: LDRI (RIJEKA/OMISALJ , HR) observed 0700 UTC 22 January 2019
Temperature: 4.0°C (39°F)
Dewpoint: -5.0°C (23°F) [RH = 52%]
Pressure (altimeter): 29.82 inches Hg (1010.0 mb)
Winds: from the ENE (60 degrees) at 10 MPH (9 knots; 4.6 m/s)
Visibility: 6 or more miles (10+ km)
Ceiling: at least 12,000 feet AGL
Clouds: few clouds at 5000 feet AGL
Weather: no significant weather observed at this time

Forecast for: LDRI (RIJEKA/OMISALJ , HR)
Text: TAF LDRI 220525Z 2206/2306 05012KT 9999 SCT040 TX07/2213Z TN03/2304Z
Forecast period: 0600 UTC 22 January 2019 to 0600 UTC 23 January 2019
Forecast type: FROM: standard forecast or significant change
Winds: from the NE (50 degrees) at 14 MPH (12 knots; 6.2 m/s)
Visibility: 6 or more miles 10+ km)
Ceiling: at least 12,000 feet AGL
Clouds: scattered clouds at 4000 feet AGL
Weather: no significant weather forecast for this period
Text: TEMPO 2206/2302 05015G25KT
Forecast period: 0600 UTC 22 January 2019 to 0200 UTC 23 January 2019
Forecast type: TEMPORARY: The following changes expected for less than half the time period
Winds: from the NE (50 degrees) at 17 MPH (15 knots; 7.7 m/s)
gusting to 29 MPH (25 knots; 12.9 m/s)
Visibility: missing
Ceiling: unknown
Clouds: missing
Weather: no significant weather forecast for this period